Time;durP1;ratioP1;P1;durP2;ratioP2;P2;SDS_P1;SDS_P2;PMS_P1;PMS_P2;Temp;Humidity;BMP_temperature;BMP_pressure;BME280_temperature;BME280_humidity;BME280_pressure;Samples;Min_cycle;Max_cycle;Signal;HPM_P1;HPM_P2
2023/07/01 00:01:22;;;;;;;;;4.00;1.75;;;;;24.48;40.17;100664.28;4921406;28;45432;-49
2023/07/01 00:03:47;;;;;;;;;1.00;1.00;;;;;24.49;40.48;100671.25;4921837;28;45615;-46
2023/07/01 00:06:13;;;;;;;;;2.00;2.00;;;;;24.48;40.71;100670.41;4921182;28;45995;-48
2023/07/01 00:08:39;;;;;;;;;1.75;1.75;;;;;24.48;41.11;100664.28;4926649;28;45338;-47
2023/07/01 00:11:05;;;;;;;;;2.75;2.75;;;;;24.48;40.87;100666.91;4943942;28;44799;-47
2023/07/01 00:13:30;;;;;;;;;2.75;2.00;;;;;24.45;41.34;100656.53;4940302;28;44890;-48
2023/07/01 00:15:56;;;;;;;;;3.75;3.75;;;;;24.43;41.88;100654.03;4931989;28;45296;-50
2023/07/01 00:18:22;;;;;;;;;2.00;2.00;;;;;24.44;42.11;100661.00;4920266;28;45442;-51
2023/07/01 00:20:47;;;;;;;;;2.25;1.00;;;;;24.46;42.20;100655.59;4920667;28;45346;-51
2023/07/01 00:23:13;;;;;;;;;3.00;1.00;;;;;24.47;42.22;100657.28;4920915;28;45472;-52
2023/07/01 00:25:38;;;;;;;;;3.00;1.75;;;;;24.48;42.02;100651.03;4919949;28;45339;-53
2023/07/01 00:28:03;;;;;;;;;1.50;1.50;;;;;24.48;42.51;100653.66;4920137;28;45350;-53
2023/07/01 00:30:29;;;;;;;;;1.00;1.00;;;;;24.47;42.54;100642.25;4920175;28;45353;-51
2023/07/01 00:32:54;;;;;;;;;2.25;2.00;;;;;24.47;42.41;100646.69;4920816;28;46927;-48
2023/07/01 00:35:19;;;;;;;;;1.50;1.50;;;;;24.47;42.41;100630.78;4922057;28;46325;-49
2023/07/01 00:37:45;;;;;;;;;1.00;1.00;;;;;24.47;42.51;100630.78;4919957;28;45433;-51
2023/07/01 00:40:10;;;;;;;;;0.00;0.00;;;;;24.46;42.98;100631.75;4920509;28;45196;-53
2023/07/01 00:42:36;;;;;;;;;1.25;1.25;;;;;24.46;42.47;100629.09;4923779;28;45219;-54
2023/07/01 00:45:01;;;;;;;;;2.25;1.25;;;;;24.45;42.58;100620.31;4932219;28;55825;-50
2023/07/01 00:47:26;;;;;;;;;2.00;1.00;;;;;24.42;43.02;100625.00;4930426;28;44647;-44
2023/07/01 00:49:52;;;;;;;;;2.00;2.00;;;;;24.45;42.55;100632.69;4929818;28;48076;-51
2023/07/01 00:52:18;;;;;;;;;1.00;1.00;;;;;24.45;43.31;100624.75;4929480;28;45243;-49
2023/07/01 00:54:44;;;;;;;;;3.00;1.25;;;;;24.45;42.65;100619.47;4927585;28;46907;-46
2023/07/01 00:57:09;;;;;;;;;1.00;1.00;;;;;24.46;42.77;100615.84;4927262;28;45579;-49
2023/07/01 00:59:35;;;;;;;;;1.50;1.50;;;;;24.43;43.38;100597.53;4925301;28;45420;-47
2023/07/01 01:02:05;;;;;;;;;1.00;1.00;;;;;24.44;43.39;100604.53;4927935;28;45349;-48
2023/07/01 01:04:44;;;;;;;;;1.75;1.50;;;;;24.45;43.53;100596.47;4930862;28;46886;-52
2023/07/01 01:07:20;;;;;;;;;1.50;1.50;;;;;24.46;42.94;100605.25;4925523;28;45758;-46
2023/07/01 01:09:52;;;;;;;;;2.75;1.50;;;;;24.45;43.63;100606.22;4920982;28;45516;-48
2023/07/01 01:12:22;;;;;;;;;2.00;1.00;;;;;24.45;43.66;100606.22;4922144;28;45571;-50
2023/07/01 01:14:50;;;;;;;;;1.00;1.00;;;;;24.45;43.22;100598.25;4919181;28;46429;-48
2023/07/01 01:17:19;;;;;;;;;2.00;1.00;;;;;24.45;43.83;100593.81;4918833;28;45312;-47
2023/07/01 01:19:59;;;;;;;;;1.00;1.00;;;;;24.44;43.63;100594.78;4918962;28;45293;-46
2023/07/01 01:22:38;;;;;;;;;2.00;2.00;;;;;24.44;43.59;100588.63;4921453;28;45452;-48
2023/07/01 01:25:08;;;;;;;;;3.00;2.00;;;;;24.42;44.47;100590.56;4937921;28;45240;-48
2023/07/01 01:27:39;;;;;;;;;2.75;2.75;;;;;24.43;43.84;100584.28;4928123;28;45709;-47
2023/07/01 01:30:06;;;;;;;;;1.00;1.00;;;;;24.40;44.65;100585.38;4919869;28;45378;-45
2023/07/01 01:32:33;;;;;;;;;2.50;2.00;;;;;24.42;44.28;100583.47;4920023;28;45579;-49
2023/07/01 01:34:59;;;;;;;;;3.00;2.50;;;;;24.43;44.96;100576.34;4922902;28;47016;-47
2023/07/01 01:37:33;;;;;;;;;3.50;2.00;;;;;24.42;44.54;100572.88;4923457;28;45351;-49
2023/07/01 01:40:10;;;;;;;;;2.00;1.75;;;;;24.41;45.29;100570.34;4927509;28;45427;-48
2023/07/01 01:42:39;;;;;;;;;4.00;1.75;;;;;24.42;45.28;100570.22;4935515;28;45474;-48
2023/07/01 01:45:07;;;;;;;;;2.00;2.00;;;;;24.41;45.48;100568.53;4924123;28;46375;-52
2023/07/01 01:47:33;;;;;;;;;5.00;2.00;;;;;24.40;45.10;100561.53;4931209;28;45286;-48
2023/07/01 01:50:09;;;;;;;;;4.00;2.00;;;;;24.37;45.05;100552.03;4931085;28;45328;-50
2023/07/01 01:52:36;;;;;;;;;3.00;2.00;;;;;24.38;45.67;100556.38;4924573;28;45358;-50
2023/07/01 01:55:02;;;;;;;;;2.25;2.00;;;;;24.39;45.83;100566.00;4922790;28;46166;-48
2023/07/01 01:57:28;;;;;;;;;2.00;2.00;;;;;24.38;45.47;100551.06;4922342;28;45236;-52
2023/07/01 01:59:54;;;;;;;;;2.00;2.00;;;;;24.38;45.92;100553.72;4921922;28;45219;-48
2023/07/01 02:02:19;;;;;;;;;2.00;2.00;;;;;24.38;45.83;100556.38;4922232;28;45228;-50
2023/07/01 02:04:44;;;;;;;;;2.00;2.00;;;;;24.37;46.20;100552.03;4920997;28;46144;-46
2023/07/01 02:07:10;;;;;;;;;1.75;1.75;;;;;24.37;45.99;100552.03;4920910;28;67460;-48
2023/07/01 02:09:35;;;;;;;;;2.00;1.00;;;;;24.36;46.38;100547.69;4922016;28;45368;-46
2023/07/01 02:12:00;;;;;;;;;1.50;1.50;;;;;24.36;45.95;100545.03;4922500;28;45401;-50
2023/07/01 02:14:26;;;;;;;;;2.00;2.00;;;;;24.35;46.32;100534.56;4921469;28;53450;-52
2023/07/01 02:16:52;;;;;;;;;2.00;2.00;;;;;24.32;46.40;100525.03;4922231;28;51321;-51
2023/07/01 02:19:17;;;;;;;;;4.00;1.25;;;;;24.35;46.16;100532.75;4923348;28;45329;-47
2023/07/01 02:21:43;;;;;;;;;2.00;2.00;;;;;24.34;46.83;100528.41;4922720;28;45380;-50
2023/07/01 02:24:08;;;;;;;;;1.00;1.00;;;;;24.34;46.35;100520.47;4921437;28;45982;-48
2023/07/01 02:26:33;;;;;;;;;3.00;3.00;;;;;24.34;46.63;100520.47;4922035;28;45385;-48
2023/07/01 02:28:59;;;;;;;;;2.00;2.00;;;;;24.33;47.01;100518.78;4921843;28;45322;-47
2023/07/01 02:31:24;;;;;;;;;1.00;1.00;;;;;24.34;46.91;100517.81;4920804;28;45440;-47
2023/07/01 02:33:50;;;;;;;;;2.25;2.00;;;;;24.33;46.76;100517.94;4920628;28;46081;-48
2023/07/01 02:36:15;;;;;;;;;2.00;2.00;;;;;24.31;46.38;100515.41;4921664;28;45362;-47
2023/07/01 02:38:41;;;;;;;;;1.00;1.00;;;;;24.30;46.65;100504.94;4921397;28;45452;-51
2023/07/01 02:41:06;;;;;;;;;2.00;2.00;;;;;24.32;47.15;100501.19;4921720;28;45265;-49
2023/07/01 02:43:32;;;;;;;;;2.00;2.00;;;;;24.32;47.14;100505.66;4921105;28;46011;-51
2023/07/01 02:45:57;;;;;;;;;1.50;1.25;;;;;24.30;46.97;100508.44;4921272;28;56776;-49
2023/07/01 02:48:22;;;;;;;;;2.00;1.75;;;;;24.32;46.90;100497.72;4928773;28;45512;-49
2023/07/01 02:50:48;;;;;;;;;1.50;1.25;;;;;24.32;47.40;100498.53;4940286;28;45246;-50
2023/07/01 02:53:15;;;;;;;;;3.00;1.25;;;;;24.31;46.83;100499.50;4920936;28;68213;-53
2023/07/01 02:55:40;;;;;;;;;2.50;1.75;;;;;24.33;47.43;100491.47;4921422;28;45836;-51
2023/07/01 02:58:05;;;;;;;;;2.00;2.00;;;;;24.29;47.39;100485.56;4921397;28;45446;-49
2023/07/01 03:00:31;;;;;;;;;3.25;1.25;;;;;24.29;47.41;100487.34;4937126;28;45357;-52
2023/07/01 03:03:05;;;;;;;;;1.25;1.00;;;;;24.27;47.44;100481.31;4937761;28;46313;-50
2023/07/01 03:05:35;;;;;;;;;1.50;1.50;;;;;24.26;47.58;100488.44;4921361;28;45871;-48
2023/07/01 03:08:00;;;;;;;;;2.00;2.00;;;;;24.23;47.53;100484.22;4921442;28;45205;-50
2023/07/01 03:10:25;;;;;;;;;2.00;2.00;;;;;24.21;47.60;100480.84;4921986;28;45612;-49
2023/07/01 03:12:51;;;;;;;;;2.00;2.00;;;;;24.24;47.50;100488.56;4920929;28;52082;-50
2023/07/01 03:15:16;;;;;;;;;2.00;2.00;;;;;24.22;47.22;100476.38;4921053;28;45331;-49
2023/07/01 03:17:42;;;;;;;;;3.00;1.00;;;;;24.25;47.79;100478.81;4921245;28;45443;-50
2023/07/01 03:20:20;;;;;;;;;3.75;2.00;;;;;24.24;47.77;100472.69;4921564;28;45475;-46
2023/07/01 03:22:45;;;;;;;;;4.00;2.75;;;;;24.22;47.32;100474.59;4921312;28;46467;-48
2023/07/01 03:25:10;;;;;;;;;5.75;2.00;;;;;24.24;47.59;100482.41;4922227;28;45274;-47
2023/07/01 03:27:37;;;;;;;;;3.00;1.00;;;;;24.23;47.73;100470.13;4926310;28;55714;-49
2023/07/01 03:30:02;;;;;;;;;3.00;2.00;;;;;24.19;47.49;100461.59;4924765;28;45567;-49
2023/07/01 03:32:27;;;;;;;;;3.75;2.00;;;;;24.19;47.45;100469.53;4926970;28;47179;-47
2023/07/01 03:34:53;;;;;;;;;2.00;1.00;;;;;24.19;48.12;100466.06;4924561;28;57718;-48
2023/07/01 03:37:18;;;;;;;;;1.75;1.75;;;;;24.17;48.25;100460.84;4926739;28;45452;-48
2023/07/01 03:39:44;;;;;;;;;1.25;1.25;;;;;24.17;47.98;100463.50;4934707;28;52560;-47
2023/07/01 03:42:09;;;;;;;;;2.00;2.00;;;;;24.17;48.46;100460.03;4930631;28;61509;-49
2023/07/01 03:44:34;;;;;;;;;1.00;1.00;;;;;24.17;48.19;100454.72;4927675;28;45263;-50
2023/07/01 03:46:59;;;;;;;;;2.75;2.00;;;;;24.16;47.90;100456.53;4927218;28;45267;-49
2023/07/01 03:49:25;;;;;;;;;2.00;2.00;;;;;24.16;48.10;100453.03;4924435;28;45323;-46
2023/07/01 03:51:51;;;;;;;;;1.50;1.00;;;;;24.15;48.50;100454.00;4921405;28;46183;-46
2023/07/01 03:54:16;;;;;;;;;1.00;1.00;;;;;24.15;48.56;100451.34;4921789;28;45223;-48
2023/07/01 03:56:42;;;;;;;;;2.00;2.00;;;;;24.14;48.28;100444.38;4927450;28;45259;-48
2023/07/01 03:59:07;;;;;;;;;2.25;1.00;;;;;24.11;48.65;100445.47;4927814;28;45484;-51
2023/07/01 04:01:33;;;;;;;;;0.75;0.50;;;;;24.12;48.77;100451.56;4929446;28;45283;-46
2023/07/01 04:03:58;;;;;;;;;1.00;1.00;;;;;24.11;48.40;100439.31;4919339;28;45440;-51
2023/07/01 04:06:24;;;;;;;;;1.00;1.00;;;;;24.09;48.84;100439.44;4918364;28;45360;-50
2023/07/01 04:08:54;;;;;;;;;1.00;1.00;;;;;24.07;49.06;100434.25;4919036;28;45341;-50
2023/07/01 04:11:20;;;;;;;;;1.00;1.00;;;;;24.12;48.76;100430.41;4918658;28;46115;-51
2023/07/01 04:13:45;;;;;;;;;1.50;1.00;;;;;24.11;48.50;100432.22;4918378;28;45240;-47
2023/07/01 04:16:11;;;;;;;;;1.25;0.50;;;;;24.14;49.01;100439.06;4918506;28;60495;-48
2023/07/01 04:18:36;;;;;;;;;0.00;0.00;;;;;24.13;48.45;100429.44;4918924;28;45243;-50
2023/07/01 04:21:01;;;;;;;;;0.00;0.00;;;;;24.12;48.97;100417.16;4918418;28;53673;-47
2023/07/01 04:23:27;;;;;;;;;1.00;1.00;;;;;24.14;48.83;100429.34;4918294;28;46408;-53
2023/07/01 04:25:52;;;;;;;;;0.50;0.50;;;;;24.16;49.02;100429.22;4919289;28;45269;-47
2023/07/01 04:28:17;;;;;;;;;0.00;0.00;;;;;24.16;48.63;100427.38;4923904;28;45505;-51
2023/07/01 04:30:42;;;;;;;;;0.00;0.00;;;;;24.17;48.94;100422.97;4883160;28;1086816;-52
2023/07/01 04:33:08;;;;;;;;;0.00;0.00;;;;;24.16;48.52;100422.09;4921906;28;45323;-48
2023/07/01 04:35:33;;;;;;;;;0.00;0.00;;;;;24.18;48.60;100430.78;4920237;28;53677;-51
2023/07/01 04:37:59;;;;;;;;;0.25;0.25;;;;;24.19;48.48;100428.97;4931935;28;45164;-48
2023/07/01 04:40:24;;;;;;;;;1.25;0.00;;;;;24.18;49.11;100422.00;4924859;28;45473;-48
2023/07/01 04:42:50;;;;;;;;;0.00;0.00;;;;;24.18;48.65;100425.47;4923077;28;45240;-49
2023/07/01 04:45:18;;;;;;;;;0.00;0.00;;;;;24.18;48.65;100422.00;4931199;28;44700;-49
2023/07/01 04:47:43;;;;;;;;;1.00;1.00;;;;;24.20;49.08;100422.69;4925012;28;45436;-46
2023/07/01 04:50:09;;;;;;;;;0.00;0.00;;;;;24.21;49.14;100414.66;4920139;28;45517;-46
2023/07/01 04:52:34;;;;;;;;;0.00;0.00;;;;;24.22;48.70;100415.47;4919840;28;45464;-50
2023/07/01 04:55:00;;;;;;;;;1.00;1.00;;;;;24.23;48.55;100411.88;4922276;28;45485;-48
2023/07/01 04:57:25;;;;;;;;;0.50;0.50;;;;;24.23;49.15;100411.88;4928460;28;45378;-48
2023/07/01 04:59:50;;;;;;;;;0.25;0.25;;;;;24.26;48.70;100410.78;4920659;28;57595;-49
2023/07/01 05:02:16;;;;;;;;;2.00;0.00;;;;;24.26;48.85;100406.34;4919237;28;55715;-47
2023/07/01 05:04:41;;;;;;;;;0.00;0.00;;;;;24.27;48.64;100417.78;4940714;28;45387;-52
2023/07/01 05:07:06;;;;;;;;;0.00;0.00;;;;;24.27;49.08;100412.47;4961921;28;45462;-47
2023/07/01 05:09:32;;;;;;;;;0.50;0.00;;;;;24.28;48.75;100408.88;4964951;28;48360;-51
2023/07/01 05:11:57;;;;;;;;;0.00;0.00;;;;;24.28;49.36;100412.38;4971967;28;45344;-51
2023/07/01 05:14:22;;;;;;;;;0.00;0.00;;;;;24.27;49.25;100413.34;4983286;28;59138;-50
2023/07/01 05:16:48;;;;;;;;;1.00;1.00;;;;;24.27;48.95;100408.03;4984671;28;44950;-46
2023/07/01 05:19:13;;;;;;;;;0.50;0.50;;;;;24.28;48.91;100408.88;4975322;28;66887;-53
2023/07/01 05:21:49;;;;;;;;;0.00;0.00;;;;;24.27;49.43;100408.03;4965349;28;48280;-46
2023/07/01 05:24:15;;;;;;;;;0.00;0.00;;;;;24.26;49.59;100403.69;4965429;28;45344;-47
2023/07/01 05:26:44;;;;;;;;;0.00;0.00;;;;;24.27;49.75;100401.88;4965235;28;45543;-52
2023/07/01 05:29:09;;;;;;;;;0.00;0.00;;;;;24.26;49.09;100401.06;4965573;28;45452;-54
2023/07/01 05:31:34;;;;;;;;;0.00;0.00;;;;;24.25;49.48;100396.72;4970494;28;69923;-56
2023/07/01 05:34:00;;;;;;;;;0.00;0.00;;;;;24.28;49.29;100406.22;4982358;28;44699;-48
2023/07/01 05:36:25;;;;;;;;;0.00;0.00;;;;;24.26;49.50;100395.75;4982382;28;49787;-50
2023/07/01 05:38:50;;;;;;;;;0.00;0.00;;;;;24.28;49.92;100409.72;4977574;28;64569;-47
2023/07/01 05:41:16;;;;;;;;;1.25;0.00;;;;;24.28;49.39;100404.44;4974772;28;61887;-51
2023/07/01 05:43:41;;;;;;;;;0.00;0.00;;;;;24.29;49.44;100405.25;4976537;28;54591;-50
2023/07/01 05:46:06;;;;;;;;;0.00;0.00;;;;;24.29;49.50;100402.59;4967590;28;55372;-47
2023/07/01 05:48:31;;;;;;;;;0.00;0.00;;;;;24.29;49.56;100406.13;4961969;28;49442;-50
2023/07/01 05:50:57;;;;;;;;;0.00;0.00;;;;;24.30;49.55;100399.84;4964817;28;45305;-51
2023/07/01 05:53:22;;;;;;;;;0.00;0.00;;;;;24.31;49.55;100401.50;4965194;28;45245;-48
2023/07/01 05:55:47;;;;;;;;;1.00;0.00;;;;;24.31;49.94;100400.69;4982371;28;44806;-52
2023/07/01 05:58:13;;;;;;;;;0.00;0.00;;;;;24.32;50.12;100402.38;4985147;28;45355;-50
2023/07/01 06:00:38;;;;;;;;;0.00;0.00;;;;;24.32;50.21;100400.56;4979210;28;45366;-49
2023/07/01 06:03:03;;;;;;;;;0.75;0.00;;;;;24.32;50.44;100403.22;4963640;28;45336;-49
2023/07/01 06:05:29;;;;;;;;;0.00;0.00;;;;;24.31;50.13;100400.69;4963646;28;45537;-49
2023/07/01 06:07:54;;;;;;;;;0.00;0.00;;;;;24.31;50.13;100404.16;4962493;28;47041;-53
2023/07/01 06:10:19;;;;;;;;;0.00;0.00;;;;;24.34;50.31;100409.22;4962625;28;64470;-54
2023/07/01 06:12:45;;;;;;;;;1.00;0.00;;;;;24.35;50.75;100404.78;4963816;28;45461;-49
2023/07/01 06:15:10;;;;;;;;;0.00;0.00;;;;;24.34;50.63;100403.94;4964140;28;45552;-43
2023/07/01 06:17:36;;;;;;;;;0.00;0.00;;;;;24.33;50.34;100402.25;4962821;28;47415;-45
2023/07/01 06:20:01;;;;;;;;;0.00;0.00;;;;;24.30;50.51;100397.22;4959517;28;45412;-44
2023/07/01 06:22:26;;;;;;;;;0.00;0.00;;;;;24.32;50.84;100403.22;4962942;28;45474;-44
2023/07/01 06:24:52;;;;;;;;;0.00;0.00;;;;;24.32;51.16;100399.72;4968523;28;45296;-44
2023/07/01 06:27:17;;;;;;;;;0.00;0.00;;;;;24.31;50.51;100396.22;4969445;28;45382;-48
2023/07/01 06:29:42;;;;;;;;;0.25;0.00;;;;;24.29;50.71;100392.88;4960962;28;45470;-48
2023/07/01 06:32:08;;;;;;;;;0.00;0.00;;;;;24.29;51.17;100389.38;4962226;28;45341;-47
2023/07/01 06:34:33;;;;;;;;;0.00;0.00;;;;;24.28;51.22;100387.69;4965773;28;45624;-45
2023/07/01 06:36:58;;;;;;;;;0.00;0.00;;;;;24.26;51.63;100390.47;4966033;28;53152;-47
2023/07/01 06:39:24;;;;;;;;;1.00;0.00;;;;;24.22;51.21;100386.34;4966081;28;45462;-49
2023/07/01 06:41:49;;;;;;;;;0.00;0.00;;;;;24.22;51.23;100391.66;4966674;28;45403;-45
2023/07/01 06:44:14;;;;;;;;;0.00;0.00;;;;;24.20;51.68;100390.91;4967089;28;45237;-44
2023/07/01 06:46:40;;;;;;;;;0.00;0.00;;;;;24.18;51.75;100393.69;4966691;28;46263;-45
2023/07/01 06:49:05;;;;;;;;;0.00;0.00;;;;;24.17;51.33;100385.88;4966736;28;53170;-48
2023/07/01 06:51:30;;;;;;;;;0.00;0.00;;;;;24.15;51.86;100379.88;4967229;28;45188;-48
2023/07/01 06:53:56;;;;;;;;;0.00;0.00;;;;;24.14;52.26;100380.81;4965551;28;45231;-47
2023/07/01 06:56:21;;;;;;;;;0.00;0.00;;;;;24.13;51.94;100374.69;4961404;28;46783;-51
2023/07/01 06:58:46;;;;;;;;;0.00;0.00;;;;;24.11;51.89;100376.63;4959873;28;45535;-51
2023/07/01 07:01:12;;;;;;;;;0.00;0.00;;;;;24.12;52.32;100374.81;4959972;28;45329;-46
2023/07/01 07:03:39;;;;;;;;;0.00;0.00;;;;;24.11;52.06;100381.06;4959409;28;45216;-49
2023/07/01 07:06:06;;;;;;;;;0.00;0.00;;;;;24.07;52.21;100381.31;4959510;28;46595;-47
2023/07/01 07:08:31;;;;;;;;;0.00;0.00;;;;;24.09;51.95;100383.84;4962783;28;45246;-45
2023/07/01 07:10:57;;;;;;;;;0.00;0.00;;;;;24.08;52.69;100377.72;4973248;28;45756;-52
2023/07/01 07:13:23;;;;;;;;;0.00;0.00;;;;;24.06;52.57;100379.63;4967822;28;45584;-48
2023/07/01 07:15:48;;;;;;;;;0.00;0.00;;;;;24.05;52.14;100377.94;4959978;28;49548;-48
2023/07/01 07:18:13;;;;;;;;;0.00;0.00;;;;;24.05;52.26;100383.22;4957788;28;55575;-49
2023/07/01 07:20:39;;;;;;;;;1.00;0.00;;;;;24.02;52.21;100380.00;4959807;28;45441;-44
2023/07/01 07:23:07;;;;;;;;;1.25;0.00;;;;;24.02;52.71;100374.69;4963651;28;45472;-46
2023/07/01 07:25:33;;;;;;;;;0.00;0.00;;;;;24.05;52.75;100383.22;4975069;28;45189;-43
2023/07/01 07:28:00;;;;;;;;;0.00;0.00;;;;;24.08;52.42;100384.78;4972230;28;44992;-45
2023/07/01 07:30:25;;;;;;;;;0.00;0.00;;;;;24.10;52.16;100388.16;4972364;28;45388;-46
2023/07/01 07:32:51;;;;;;;;;0.00;0.00;;;;;24.12;52.18;100383.59;4969452;28;45300;-44
2023/07/01 07:35:16;;;;;;;;;0.00;0.00;;;;;24.15;52.52;100390.44;4977864;28;45245;-47
2023/07/01 07:37:42;;;;;;;;;0.00;0.00;;;;;24.17;52.76;100392.00;4960253;28;45341;-46
2023/07/01 07:40:08;;;;;;;;;0.00;0.00;;;;;24.18;52.16;100387.56;4960935;28;45440;-44
2023/07/01 07:42:34;;;;;;;;;0.00;0.00;;;;;24.20;52.48;100382.97;4961717;28;45744;-46
2023/07/01 07:44:59;;;;;;;;;0.00;0.00;;;;;24.22;52.45;100383.72;4962017;28;45515;-45
2023/07/01 07:47:25;;;;;;;;;0.00;0.00;;;;;24.23;52.51;100380.09;4968431;28;45249;-44
2023/07/01 07:49:50;;;;;;;;;0.50;0.00;;;;;24.24;52.06;100387.09;4965553;28;56842;-46
2023/07/01 07:52:15;;;;;;;;;0.00;0.00;;;;;24.27;52.02;100384.19;4960453;28;45621;-48
2023/07/01 07:54:41;;;;;;;;;0.00;0.00;;;;;24.28;52.30;100385.88;4958775;28;45220;-45
2023/07/01 07:57:07;;;;;;;;;1.50;0.00;;;;;24.30;52.54;100383.97;4958889;28;45840;-47
2023/07/01 07:59:32;;;;;;;;;0.00;0.00;;;;;24.31;52.14;100376.84;4957956;28;45583;-45
2023/07/01 08:01:57;;;;;;;;;0.00;0.00;;;;;24.34;52.28;100374.81;4958435;28;45687;-47
2023/07/01 08:04:27;;;;;;;;;0.00;0.00;;;;;24.36;52.00;100370.22;4960371;28;45898;-47
2023/07/01 08:06:52;;;;;;;;;0.00;0.00;;;;;24.34;52.00;100364.22;4958921;28;45455;-46
2023/07/01 08:09:18;;;;;;;;;0.75;0.75;;;;;24.38;52.57;100368.31;4959059;28;45578;-46
2023/07/01 08:11:43;;;;;;;;;0.00;0.00;;;;;24.38;52.42;100365.66;4962669;28;45320;-45
2023/07/01 08:14:09;;;;;;;;;0.00;0.00;;;;;24.39;52.02;100364.69;4973579;28;47066;-44
2023/07/01 08:16:34;;;;;;;;;0.00;0.00;;;;;24.41;52.52;100358.44;4959073;28;46039;-49
2023/07/01 08:18:59;;;;;;;;;0.00;0.00;;;;;24.40;51.92;100368.16;4958103;28;56205;-47
2023/07/01 08:21:24;;;;;;;;;0.00;0.00;;;;;24.43;51.95;100364.44;4958336;28;47930;-44
2023/07/01 08:23:50;;;;;;;;;0.00;0.00;;;;;24.43;51.64;100361.78;4958779;28;46735;-43
2023/07/01 08:26:15;;;;;;;;;0.00;0.00;;;;;24.44;51.64;100368.75;4958637;28;45296;-51
2023/07/01 08:28:40;;;;;;;;;0.25;0.25;;;;;24.44;52.21;100358.16;4957749;28;55425;-46
2023/07/01 08:31:06;;;;;;;;;0.00;0.00;;;;;24.45;51.86;100375.75;4958451;28;45535;-46
2023/07/01 08:33:32;;;;;;;;;0.00;0.00;;;;;24.44;51.48;100363.47;4956884;28;45382;-43
2023/07/01 15:15:58;;;;;;;;;2.00;2.00;;;;;24.76;42.80;100439.56;4966124;23;45311;-52
2023/07/01 15:18:25;;;;;;;;;2.00;2.00;;;;;24.77;43.00;100435.97;4939844;28;45325;-52
2023/07/01 15:20:50;;;;;;;;;1.00;1.00;;;;;24.79;42.78;100426.09;4939404;28;46549;-53
2023/07/01 15:23:15;;;;;;;;;1.00;1.00;;;;;24.79;42.82;100426.09;4939507;28;45422;-51
2023/07/01 15:25:41;;;;;;;;;2.50;2.00;;;;;24.78;43.30;100419.09;4938508;28;45447;-52
2023/07/01 15:28:06;;;;;;;;;1.00;1.00;;;;;24.80;42.78;100427.78;4939453;28;45418;-51
2023/07/01 15:30:33;;;;;;;;;1.00;1.00;;;;;24.80;43.00;100433.06;4938926;28;45586;-52
2023/07/01 15:32:58;;;;;;;;;1.00;1.00;;;;;24.81;43.04;100432.13;4939503;28;45436;-54
2023/07/01 15:35:24;;;;;;;;;0.00;0.00;;;;;24.79;42.70;100439.34;4939418;28;45344;-50
2023/07/01 15:37:50;;;;;;;;;1.00;1.00;;;;;24.80;42.71;100430.41;4939420;28;45515;-52
2023/07/01 15:40:16;;;;;;;;;2.00;2.00;;;;;24.80;42.86;100435.72;4938542;28;46538;-52
2023/07/01 15:42:41;;;;;;;;;1.00;1.00;;;;;24.80;42.73;100433.06;4923880;28;45823;-53
2023/07/01 15:45:07;;;;;;;;;1.00;1.00;;;;;24.81;42.43;100432.13;4920011;28;45219;-53
2023/07/01 15:47:32;;;;;;;;;1.00;1.00;;;;;24.81;42.65;100429.47;4938937;28;45314;-54
2023/07/01 15:49:58;;;;;;;;;1.00;1.00;;;;;24.81;43.06;100434.75;4938735;28;45682;-54
2023/07/01 15:52:23;;;;;;;;;1.75;1.75;;;;;24.81;42.46;100429.47;4938537;28;45477;-54
2023/07/01 15:54:49;;;;;;;;;1.50;1.50;;;;;24.82;42.91;100439.09;4937702;28;45393;-54
2023/07/01 15:57:15;;;;;;;;;2.00;2.00;;;;;24.81;42.72;100435.59;4939018;28;45520;-53
2023/07/01 15:59:40;;;;;;;;;1.00;1.00;;;;;24.83;42.90;100435.50;4938529;28;46809;-52
2023/07/01 16:02:05;;;;;;;;;0.00;0.00;;;;;24.80;42.80;100431.28;4944496;28;59411;-54
2023/07/01 16:04:38;;;;;;;;;3.75;1.00;;;;;24.82;43.08;100439.94;4924596;28;45550;-54
2023/07/01 16:07:27;;;;;;;;;1.00;1.00;;;;;24.83;43.16;100440.78;4933991;28;45419;-52
2023/07/01 16:09:59;;;;;;;;;1.25;1.25;;;;;24.83;42.60;100436.31;4900660;28;46236;-52
2023/07/01 16:12:32;;;;;;;;;3.00;1.25;;;;;24.82;42.89;100442.56;4938341;28;45660;-51
2023/07/01 16:15:05;;;;;;;;;3.00;2.25;;;;;24.81;42.63;100432.94;4938654;28;45438;-51
2023/07/01 16:17:31;;;;;;;;;3.00;3.00;;;;;24.82;42.79;100439.09;4938600;28;45380;-52
2023/07/01 16:19:57;;;;;;;;;2.00;2.00;;;;;24.82;42.20;100441.75;4938382;28;46236;-54
2023/07/01 16:22:24;;;;;;;;;3.00;1.25;;;;;24.82;42.71;100442.56;4938683;28;45324;-54
2023/07/01 16:24:55;;;;;;;;;2.00;2.00;;;;;24.83;42.68;100435.50;4938735;28;45216;-52
2023/07/01 16:27:23;;;;;;;;;5.00;1.25;;;;;24.82;42.61;100439.09;4937723;28;45418;-54
2023/07/01 16:30:02;;;;;;;;;2.00;2.00;;;;;24.82;42.29;100439.94;4938241;28;47160;-53
2023/07/01 16:32:29;;;;;;;;;2.00;2.00;;;;;24.81;42.54;100450.66;4938365;28;45777;-52
2023/07/01 16:34:55;;;;;;;;;1.00;1.00;;;;;24.81;42.62;100442.72;4938420;28;45364;-51
2023/07/01 16:37:20;;;;;;;;;3.00;2.00;;;;;24.82;42.11;100452.34;4938119;28;45455;-53
2023/07/01 16:39:51;;;;;;;;;1.75;1.00;;;;;24.83;42.35;100456.69;4937938;28;46252;-53
2023/07/01 16:42:21;;;;;;;;;4.75;2.00;;;;;24.82;42.05;100457.66;4938114;28;45500;-55
2023/07/01 16:44:53;;;;;;;;;2.25;2.25;;;;;24.81;42.05;100454.13;4937983;28;45322;-52
2023/07/01 16:47:23;;;;;;;;;4.00;2.00;;;;;24.79;41.97;100456.09;4936697;28;45442;-52
2023/07/01 16:49:56;;;;;;;;;3.25;2.00;;;;;24.81;42.43;100463.91;4937988;28;45450;-53
2023/07/01 16:52:30;;;;;;;;;4.00;2.00;;;;;24.78;41.77;100462.38;4936668;28;45692;-51
2023/07/01 16:54:56;;;;;;;;;3.75;2.00;;;;;24.81;41.76;100464.75;4937675;28;45478;-53
2023/07/01 16:57:22;;;;;;;;;3.50;3.00;;;;;24.81;41.91;100463.91;4937811;28;45333;-52
2023/07/01 16:59:49;;;;;;;;;3.00;2.50;;;;;24.80;41.49;100464.88;4937760;28;46499;-51
2023/07/01 17:02:29;;;;;;;;;2.25;1.50;;;;;24.79;41.59;100465.84;4937204;28;45227;-53
2023/07/01 17:04:55;;;;;;;;;3.00;3.00;;;;;24.79;41.42;100471.13;4937612;28;45278;-54
2023/07/01 17:07:21;;;;;;;;;2.50;2.50;;;;;24.79;41.01;100474.66;4937692;28;45379;-52
2023/07/01 17:09:49;;;;;;;;;5.50;2.50;;;;;24.79;41.18;100465.84;4937816;28;46683;-53
2023/07/01 17:12:34;;;;;;;;;4.00;3.75;;;;;24.79;41.55;100471.13;4937707;28;45293;-52
2023/07/01 17:15:01;;;;;;;;;3.50;2.00;;;;;24.78;41.74;100469.44;4936678;28;45479;-53
2023/07/01 17:17:29;;;;;;;;;5.50;3.50;;;;;24.79;41.10;100465.84;4937520;28;45342;-52
2023/07/01 17:19:55;;;;;;;;;5.00;3.25;;;;;24.78;41.22;100470.31;4937020;28;45612;-53
2023/07/01 17:22:21;;;;;;;;;6.00;4.00;;;;;24.78;40.76;100472.97;4937214;28;45381;-54
2023/07/01 17:24:46;;;;;;;;;3.25;3.25;;;;;24.78;40.66;100486.22;4937635;28;45258;-53
2023/07/01 17:27:12;;;;;;;;;3.00;3.00;;;;;24.78;40.72;100475.63;4937468;28;45274;-53
2023/07/01 17:29:37;;;;;;;;;4.25;4.00;;;;;24.77;40.92;100475.72;4936956;28;45579;-52
2023/07/01 17:32:03;;;;;;;;;3.25;3.25;;;;;24.74;41.17;100474.16;4937093;28;46707;-53
2023/07/01 17:34:41;;;;;;;;;6.25;4.00;;;;;24.77;41.11;100486.31;4937210;28;45202;-52
2023/07/01 17:37:06;;;;;;;;;5.25;4.75;;;;;24.78;40.88;100472.09;4937451;28;45636;-53
2023/07/01 17:39:32;;;;;;;;;4.50;4.50;;;;;24.78;41.15;100474.75;4936992;28;46288;-50
2023/07/01 17:41:57;;;;;;;;;9.00;6.00;;;;;24.76;41.15;100481.97;4936878;28;45330;-52
2023/07/01 17:44:23;;;;;;;;;6.50;4.00;;;;;24.76;40.40;100481.97;4937115;28;45440;-53
2023/07/01 17:46:48;;;;;;;;;8.25;6.50;;;;;24.77;40.96;100486.31;4937484;28;45472;-54
2023/07/01 17:49:13;;;;;;;;;7.50;6.00;;;;;24.76;40.50;100487.28;4936926;28;46390;-52
2023/07/01 17:51:39;;;;;;;;;9.25;6.00;;;;;24.76;40.64;100485.47;4936917;28;45291;-51
2023/07/01 17:54:04;;;;;;;;;6.50;6.50;;;;;24.76;40.28;100495.22;4935584;28;45458;-53
2023/07/01 17:56:30;;;;;;;;;9.25;7.00;;;;;24.74;40.84;100494.53;4936700;28;46494;-53
2023/07/01 17:58:55;;;;;;;;;8.50;7.00;;;;;24.75;40.42;100497.03;4936336;28;56258;-52
2023/07/01 18:01:20;;;;;;;;;9.00;6.75;;;;;24.76;40.40;100487.28;4936738;28;45376;-52